sensor_id;sensor_type;location;lat;lon;timestamp;P1;durP1;ratioP1;P2;durP2;ratioP2
72095;SDS011;59968;51.084;16.748;2022-12-29T00:02:28;5.20;;;1.80;;
72095;SDS011;59968;51.084;16.748;2022-12-29T00:04:56;4.60;;;2.00;;
72095;SDS011;59968;51.084;16.748;2022-12-29T00:07:23;3.90;;;2.10;;
72095;SDS011;59968;51.084;16.748;2022-12-29T00:09:50;3.90;;;1.80;;
72095;SDS011;59968;51.084;16.748;2022-12-29T00:12:17;4.80;;;1.50;;
72095;SDS011;59968;51.084;16.748;2022-12-29T00:14:44;4.40;;;1.70;;
72095;SDS011;59968;51.084;16.748;2022-12-29T00:17:29;5.20;;;1.60;;
72095;SDS011;59968;51.084;16.748;2022-12-29T00:19:58;4.70;;;1.90;;
72095;SDS011;59968;51.084;16.748;2022-12-29T00:22:44;3.50;;;1.50;;
72095;SDS011;59968;51.084;16.748;2022-12-29T00:25:30;3.30;;;1.90;;
72095;SDS011;59968;51.084;16.748;2022-12-29T00:28:15;4.20;;;2.10;;
72095;SDS011;59968;51.084;16.748;2022-12-29T00:31:01;3.30;;;1.30;;
72095;SDS011;59968;51.084;16.748;2022-12-29T00:33:47;3.40;;;1.90;;
72095;SDS011;59968;51.084;16.748;2022-12-29T00:36:37;3.50;;;1.30;;
72095;SDS011;59968;51.084;16.748;2022-12-29T00:39:07;4.00;;;1.70;;
72095;SDS011;59968;51.084;16.748;2022-12-29T00:42:02;4.30;;;1.50;;
72095;SDS011;59968;51.084;16.748;2022-12-29T00:44:52;2.80;;;1.20;;
72095;SDS011;59968;51.084;16.748;2022-12-29T00:47:19;3.40;;;1.90;;
72095;SDS011;59968;51.084;16.748;2022-12-29T00:49:46;6.20;;;1.50;;
72095;SDS011;59968;51.084;16.748;2022-12-29T00:52:13;3.50;;;1.80;;
72095;SDS011;59968;51.084;16.748;2022-12-29T00:54:40;3.20;;;1.50;;
72095;SDS011;59968;51.084;16.748;2022-12-29T00:57:08;3.10;;;1.50;;
72095;SDS011;59968;51.084;16.748;2022-12-29T00:59:36;3.30;;;1.50;;
72095;SDS011;59968;51.084;16.748;2022-12-29T01:02:05;3.40;;;1.70;;
72095;SDS011;59968;51.084;16.748;2022-12-29T01:04:34;3.60;;;1.90;;
72095;SDS011;59968;51.084;16.748;2022-12-29T01:07:01;4.40;;;1.60;;
72095;SDS011;59968;51.084;16.748;2022-12-29T01:09:29;3.30;;;1.60;;
72095;SDS011;59968;51.084;16.748;2022-12-29T01:12:17;4.00;;;1.70;;
72095;SDS011;59968;51.084;16.748;2022-12-29T01:15:05;2.80;;;1.40;;
72095;SDS011;59968;51.084;16.748;2022-12-29T01:17:34;3.50;;;1.50;;
72095;SDS011;59968;51.084;16.748;2022-12-29T01:20:02;3.30;;;1.30;;
72095;SDS011;59968;51.084;16.748;2022-12-29T01:22:30;3.10;;;1.40;;
72095;SDS011;59968;51.084;16.748;2022-12-29T01:24:57;3.70;;;1.40;;
72095;SDS011;59968;51.084;16.748;2022-12-29T01:27:24;2.80;;;1.30;;
72095;SDS011;59968;51.084;16.748;2022-12-29T01:29:51;2.50;;;1.30;;
72095;SDS011;59968;51.084;16.748;2022-12-29T01:32:18;2.80;;;1.10;;
72095;SDS011;59968;51.084;16.748;2022-12-29T01:34:45;4.20;;;1.60;;
72095;SDS011;59968;51.084;16.748;2022-12-29T01:37:12;5.70;;;1.70;;
72095;SDS011;59968;51.084;16.748;2022-12-29T01:39:40;3.20;;;1.50;;
72095;SDS011;59968;51.084;16.748;2022-12-29T01:42:15;4.50;;;1.60;;
72095;SDS011;59968;51.084;16.748;2022-12-29T01:44:48;3.20;;;1.50;;
72095;SDS011;59968;51.084;16.748;2022-12-29T01:47:20;3.70;;;1.80;;
72095;SDS011;59968;51.084;16.748;2022-12-29T01:49:48;4.20;;;1.60;;
72095;SDS011;59968;51.084;16.748;2022-12-29T01:52:15;5.80;;;1.30;;
72095;SDS011;59968;51.084;16.748;2022-12-29T01:54:43;2.90;;;1.40;;
72095;SDS011;59968;51.084;16.748;2022-12-29T01:57:17;4.00;;;1.70;;
72095;SDS011;59968;51.084;16.748;2022-12-29T02:00:07;2.90;;;1.30;;
72095;SDS011;59968;51.084;16.748;2022-12-29T02:02:49;3.70;;;1.60;;
72095;SDS011;59968;51.084;16.748;2022-12-29T02:05:24;3.10;;;1.60;;
72095;SDS011;59968;51.084;16.748;2022-12-29T02:08:01;6.10;;;1.90;;
72095;SDS011;59968;51.084;16.748;2022-12-29T02:10:30;4.20;;;1.80;;
72095;SDS011;59968;51.084;16.748;2022-12-29T02:12:59;3.70;;;1.80;;
72095;SDS011;59968;51.084;16.748;2022-12-29T02:15:45;3.90;;;1.60;;
72095;SDS011;59968;51.084;16.748;2022-12-29T02:18:48;3.10;;;1.40;;
72095;SDS011;59968;51.084;16.748;2022-12-29T02:30:04;2.70;;;1.60;;
72095;SDS011;59968;51.084;16.748;2022-12-29T02:41:18;3.70;;;1.30;;
72095;SDS011;59968;51.084;16.748;2022-12-29T02:48:56;2.50;;;1.40;;
72095;SDS011;59968;51.084;16.748;2022-12-29T02:51:40;3.00;;;1.40;;
72095;SDS011;59968;51.084;16.748;2022-12-29T02:54:13;2.60;;;1.10;;
72095;SDS011;59968;51.084;16.748;2022-12-29T02:57:04;2.60;;;1.20;;
72095;SDS011;59968;51.084;16.748;2022-12-29T02:59:37;2.40;;;1.30;;
72095;SDS011;59968;51.084;16.748;2022-12-29T03:07:52;3.20;;;1.10;;
72095;SDS011;59968;51.084;16.748;2022-12-29T03:13:49;3.20;;;1.50;;
72095;SDS011;59968;51.084;16.748;2022-12-29T03:17:24;3.00;;;1.30;;
72095;SDS011;59968;51.084;16.748;2022-12-29T03:19:41;3.00;;;1.50;;
72095;SDS011;59968;51.084;16.748;2022-12-29T03:22:17;3.00;;;1.50;;
72095;SDS011;59968;51.084;16.748;2022-12-29T03:25:10;2.20;;;1.30;;
72095;SDS011;59968;51.084;16.748;2022-12-29T03:27:39;2.70;;;1.60;;
72095;SDS011;59968;51.084;16.748;2022-12-29T03:30:10;2.80;;;1.30;;
72095;SDS011;59968;51.084;16.748;2022-12-29T03:32:40;2.10;;;1.10;;
72095;SDS011;59968;51.084;16.748;2022-12-29T03:35:12;3.10;;;0.90;;
72095;SDS011;59968;51.084;16.748;2022-12-29T03:37:49;3.00;;;1.20;;
72095;SDS011;59968;51.084;16.748;2022-12-29T03:40:33;2.90;;;1.20;;
72095;SDS011;59968;51.084;16.748;2022-12-29T03:43:02;3.60;;;1.30;;
72095;SDS011;59968;51.084;16.748;2022-12-29T03:45:30;4.30;;;1.30;;
72095;SDS011;59968;51.084;16.748;2022-12-29T03:47:57;3.80;;;1.40;;
72095;SDS011;59968;51.084;16.748;2022-12-29T03:50:25;2.40;;;1.60;;
72095;SDS011;59968;51.084;16.748;2022-12-29T03:52:52;3.70;;;1.90;;
72095;SDS011;59968;51.084;16.748;2022-12-29T03:55:19;2.80;;;1.20;;
72095;SDS011;59968;51.084;16.748;2022-12-29T03:57:47;2.60;;;1.20;;
72095;SDS011;59968;51.084;16.748;2022-12-29T04:00:17;2.60;;;1.10;;
72095;SDS011;59968;51.084;16.748;2022-12-29T04:02:48;2.90;;;1.00;;
72095;SDS011;59968;51.084;16.748;2022-12-29T04:05:20;2.90;;;1.10;;
72095;SDS011;59968;51.084;16.748;2022-12-29T04:07:48;3.90;;;1.00;;
72095;SDS011;59968;51.084;16.748;2022-12-29T04:10:15;2.10;;;1.00;;
72095;SDS011;59968;51.084;16.748;2022-12-29T04:12:43;2.00;;;1.00;;
72095;SDS011;59968;51.084;16.748;2022-12-29T04:15:13;2.90;;;1.40;;
72095;SDS011;59968;51.084;16.748;2022-12-29T04:17:41;2.50;;;1.30;;
72095;SDS011;59968;51.084;16.748;2022-12-29T04:20:08;3.60;;;1.50;;
72095;SDS011;59968;51.084;16.748;2022-12-29T04:23:14;2.90;;;1.10;;
72095;SDS011;59968;51.084;16.748;2022-12-29T04:25:44;2.50;;;1.20;;
72095;SDS011;59968;51.084;16.748;2022-12-29T04:28:14;2.50;;;1.30;;
72095;SDS011;59968;51.084;16.748;2022-12-29T04:30:53;2.70;;;1.20;;
72095;SDS011;59968;51.084;16.748;2022-12-29T04:33:33;2.00;;;1.30;;
72095;SDS011;59968;51.084;16.748;2022-12-29T04:36:01;2.10;;;1.30;;
72095;SDS011;59968;51.084;16.748;2022-12-29T04:38:29;2.40;;;1.40;;
72095;SDS011;59968;51.084;16.748;2022-12-29T04:40:59;3.40;;;1.30;;
72095;SDS011;59968;51.084;16.748;2022-12-29T04:43:27;2.60;;;1.00;;
72095;SDS011;59968;51.084;16.748;2022-12-29T04:46:15;2.80;;;1.30;;
72095;SDS011;59968;51.084;16.748;2022-12-29T04:48:55;2.80;;;1.00;;
72095;SDS011;59968;51.084;16.748;2022-12-29T04:51:29;2.30;;;1.30;;
72095;SDS011;59968;51.084;16.748;2022-12-29T04:53:56;2.40;;;1.10;;
72095;SDS011;59968;51.084;16.748;2022-12-29T04:56:25;1.90;;;0.90;;
72095;SDS011;59968;51.084;16.748;2022-12-29T04:58:52;2.40;;;1.20;;
72095;SDS011;59968;51.084;16.748;2022-12-29T05:01:20;3.10;;;1.10;;
72095;SDS011;59968;51.084;16.748;2022-12-29T05:03:49;3.10;;;1.00;;
72095;SDS011;59968;51.084;16.748;2022-12-29T05:06:17;2.40;;;1.20;;
72095;SDS011;59968;51.084;16.748;2022-12-29T05:08:45;3.20;;;1.30;;
72095;SDS011;59968;51.084;16.748;2022-12-29T05:11:12;4.40;;;1.50;;
72095;SDS011;59968;51.084;16.748;2022-12-29T05:13:40;2.60;;;0.90;;
72095;SDS011;59968;51.084;16.748;2022-12-29T05:16:07;2.80;;;1.50;;
72095;SDS011;59968;51.084;16.748;2022-12-29T05:18:34;3.90;;;1.70;;
72095;SDS011;59968;51.084;16.748;2022-12-29T05:21:02;3.40;;;1.60;;
72095;SDS011;59968;51.084;16.748;2022-12-29T05:23:30;2.70;;;1.00;;
72095;SDS011;59968;51.084;16.748;2022-12-29T05:26:03;2.40;;;1.20;;
72095;SDS011;59968;51.084;16.748;2022-12-29T05:28:57;2.80;;;1.20;;
72095;SDS011;59968;51.084;16.748;2022-12-29T05:31:23;3.10;;;1.40;;
72095;SDS011;59968;51.084;16.748;2022-12-29T05:33:51;3.50;;;1.40;;
72095;SDS011;59968;51.084;16.748;2022-12-29T05:36:18;3.40;;;1.30;;
72095;SDS011;59968;51.084;16.748;2022-12-29T05:38:49;3.10;;;1.40;;
72095;SDS011;59968;51.084;16.748;2022-12-29T05:41:17;3.50;;;1.20;;
72095;SDS011;59968;51.084;16.748;2022-12-29T05:44:00;3.30;;;1.60;;
72095;SDS011;59968;51.084;16.748;2022-12-29T05:46:39;2.80;;;1.10;;
72095;SDS011;59968;51.084;16.748;2022-12-29T05:49:25;2.20;;;1.30;;
72095;SDS011;59968;51.084;16.748;2022-12-29T05:51:58;2.50;;;1.30;;
72095;SDS011;59968;51.084;16.748;2022-12-29T05:54:27;3.00;;;1.30;;
72095;SDS011;59968;51.084;16.748;2022-12-29T05:56:55;3.20;;;1.60;;
72095;SDS011;59968;51.084;16.748;2022-12-29T05:59:22;3.00;;;1.30;;
72095;SDS011;59968;51.084;16.748;2022-12-29T06:01:49;3.00;;;1.00;;
72095;SDS011;59968;51.084;16.748;2022-12-29T06:04:17;2.80;;;1.40;;
72095;SDS011;59968;51.084;16.748;2022-12-29T06:06:44;2.70;;;1.40;;
72095;SDS011;59968;51.084;16.748;2022-12-29T06:09:18;2.80;;;1.40;;
72095;SDS011;59968;51.084;16.748;2022-12-29T06:11:45;2.80;;;1.20;;
72095;SDS011;59968;51.084;16.748;2022-12-29T06:14:12;2.50;;;1.30;;
72095;SDS011;59968;51.084;16.748;2022-12-29T06:16:40;3.40;;;1.40;;
72095;SDS011;59968;51.084;16.748;2022-12-29T06:19:11;2.80;;;1.60;;
72095;SDS011;59968;51.084;16.748;2022-12-29T06:21:38;2.10;;;1.20;;
72095;SDS011;59968;51.084;16.748;2022-12-29T06:24:05;2.90;;;1.70;;
72095;SDS011;59968;51.084;16.748;2022-12-29T06:26:34;3.90;;;1.80;;
72095;SDS011;59968;51.084;16.748;2022-12-29T06:29:01;3.20;;;1.50;;
72095;SDS011;59968;51.084;16.748;2022-12-29T06:31:30;2.40;;;1.20;;
72095;SDS011;59968;51.084;16.748;2022-12-29T06:33:57;2.20;;;1.20;;
72095;SDS011;59968;51.084;16.748;2022-12-29T06:36:29;2.50;;;1.20;;
72095;SDS011;59968;51.084;16.748;2022-12-29T06:38:58;3.00;;;1.30;;
72095;SDS011;59968;51.084;16.748;2022-12-29T06:41:25;2.30;;;1.10;;
72095;SDS011;59968;51.084;16.748;2022-12-29T06:44:27;3.60;;;1.20;;
72095;SDS011;59968;51.084;16.748;2022-12-29T06:46:58;4.50;;;1.50;;
72095;SDS011;59968;51.084;16.748;2022-12-29T06:49:25;2.40;;;1.30;;
72095;SDS011;59968;51.084;16.748;2022-12-29T06:51:53;2.40;;;1.30;;
72095;SDS011;59968;51.084;16.748;2022-12-29T06:54:20;4.20;;;1.60;;
72095;SDS011;59968;51.084;16.748;2022-12-29T06:56:47;3.10;;;1.50;;
72095;SDS011;59968;51.084;16.748;2022-12-29T06:59:14;4.30;;;2.20;;
72095;SDS011;59968;51.084;16.748;2022-12-29T07:01:43;3.40;;;1.40;;
72095;SDS011;59968;51.084;16.748;2022-12-29T07:04:11;3.70;;;1.80;;
72095;SDS011;59968;51.084;16.748;2022-12-29T07:06:38;3.90;;;1.50;;
72095;SDS011;59968;51.084;16.748;2022-12-29T07:09:08;3.60;;;1.80;;
72095;SDS011;59968;51.084;16.748;2022-12-29T07:11:36;5.40;;;2.20;;
72095;SDS011;59968;51.084;16.748;2022-12-29T07:14:04;7.30;;;2.80;;
72095;SDS011;59968;51.084;16.748;2022-12-29T07:16:32;3.80;;;1.90;;
72095;SDS011;59968;51.084;16.748;2022-12-29T07:19:02;4.30;;;1.80;;
72095;SDS011;59968;51.084;16.748;2022-12-29T07:21:31;3.20;;;1.70;;
72095;SDS011;59968;51.084;16.748;2022-12-29T07:24:00;3.10;;;1.50;;
72095;SDS011;59968;51.084;16.748;2022-12-29T07:26:28;2.80;;;1.50;;
72095;SDS011;59968;51.084;16.748;2022-12-29T07:29:03;3.40;;;1.30;;
72095;SDS011;59968;51.084;16.748;2022-12-29T07:31:30;3.60;;;1.80;;
72095;SDS011;59968;51.084;16.748;2022-12-29T07:33:59;3.50;;;1.70;;
72095;SDS011;59968;51.084;16.748;2022-12-29T07:36:26;4.10;;;1.60;;
72095;SDS011;59968;51.084;16.748;2022-12-29T07:39:01;2.50;;;1.30;;
72095;SDS011;59968;51.084;16.748;2022-12-29T07:41:29;2.50;;;1.40;;
72095;SDS011;59968;51.084;16.748;2022-12-29T07:43:59;3.50;;;1.30;;
72095;SDS011;59968;51.084;16.748;2022-12-29T07:46:46;3.10;;;1.30;;
72095;SDS011;59968;51.084;16.748;2022-12-29T07:49:24;2.60;;;1.20;;
72095;SDS011;59968;51.084;16.748;2022-12-29T07:51:52;3.30;;;1.60;;
72095;SDS011;59968;51.084;16.748;2022-12-29T07:54:23;2.70;;;1.30;;
72095;SDS011;59968;51.084;16.748;2022-12-29T07:56:56;3.50;;;1.60;;
72095;SDS011;59968;51.084;16.748;2022-12-29T07:59:24;2.90;;;1.20;;
72095;SDS011;59968;51.084;16.748;2022-12-29T08:01:52;4.20;;;1.90;;
72095;SDS011;59968;51.084;16.748;2022-12-29T08:04:20;3.00;;;1.50;;
72095;SDS011;59968;51.084;16.748;2022-12-29T08:06:48;2.70;;;1.40;;
72095;SDS011;59968;51.084;16.748;2022-12-29T08:09:16;3.00;;;1.30;;
72095;SDS011;59968;51.084;16.748;2022-12-29T08:11:50;2.80;;;1.40;;
72095;SDS011;59968;51.084;16.748;2022-12-29T08:14:18;3.60;;;1.30;;
72095;SDS011;59968;51.084;16.748;2022-12-29T08:16:48;6.30;;;1.70;;
72095;SDS011;59968;51.084;16.748;2022-12-29T08:19:17;3.20;;;1.70;;
72095;SDS011;59968;51.084;16.748;2022-12-29T08:21:45;2.80;;;1.60;;
72095;SDS011;59968;51.084;16.748;2022-12-29T08:24:14;5.10;;;1.70;;
72095;SDS011;59968;51.084;16.748;2022-12-29T08:26:44;3.10;;;1.50;;
72095;SDS011;59968;51.084;16.748;2022-12-29T08:29:13;3.00;;;1.20;;
72095;SDS011;59968;51.084;16.748;2022-12-29T08:31:42;3.90;;;1.30;;
72095;SDS011;59968;51.084;16.748;2022-12-29T08:34:12;3.90;;;1.60;;
72095;SDS011;59968;51.084;16.748;2022-12-29T08:36:41;2.50;;;1.30;;
72095;SDS011;59968;51.084;16.748;2022-12-29T08:39:10;4.20;;;1.70;;
72095;SDS011;59968;51.084;16.748;2022-12-29T08:41:39;3.80;;;2.10;;
72095;SDS011;59968;51.084;16.748;2022-12-29T08:44:08;3.40;;;1.50;;
72095;SDS011;59968;51.084;16.748;2022-12-29T08:46:36;4.40;;;1.50;;
72095;SDS011;59968;51.084;16.748;2022-12-29T08:49:04;4.40;;;1.70;;
72095;SDS011;59968;51.084;16.748;2022-12-29T08:51:33;3.00;;;1.70;;
72095;SDS011;59968;51.084;16.748;2022-12-29T08:54:02;3.00;;;1.80;;
72095;SDS011;59968;51.084;16.748;2022-12-29T08:56:32;3.40;;;1.90;;
72095;SDS011;59968;51.084;16.748;2022-12-29T08:59:01;3.80;;;1.40;;
72095;SDS011;59968;51.084;16.748;2022-12-29T09:01:31;3.10;;;1.50;;
72095;SDS011;59968;51.084;16.748;2022-12-29T09:04:02;4.40;;;1.40;;
72095;SDS011;59968;51.084;16.748;2022-12-29T09:06:47;3.20;;;1.30;;
72095;SDS011;59968;51.084;16.748;2022-12-29T09:09:17;2.70;;;1.10;;
72095;SDS011;59968;51.084;16.748;2022-12-29T09:11:46;2.90;;;1.60;;
72095;SDS011;59968;51.084;16.748;2022-12-29T09:14:16;4.50;;;1.40;;
72095;SDS011;59968;51.084;16.748;2022-12-29T09:16:45;3.00;;;1.70;;
72095;SDS011;59968;51.084;16.748;2022-12-29T09:19:34;4.20;;;1.70;;
72095;SDS011;59968;51.084;16.748;2022-12-29T09:22:03;2.30;;;1.20;;
72095;SDS011;59968;51.084;16.748;2022-12-29T09:24:32;2.90;;;1.30;;
72095;SDS011;59968;51.084;16.748;2022-12-29T09:27:00;3.80;;;1.40;;
72095;SDS011;59968;51.084;16.748;2022-12-29T09:29:28;2.20;;;1.20;;
72095;SDS011;59968;51.084;16.748;2022-12-29T09:31:56;3.60;;;1.60;;
72095;SDS011;59968;51.084;16.748;2022-12-29T09:34:23;2.40;;;1.30;;
72095;SDS011;59968;51.084;16.748;2022-12-29T09:36:51;3.90;;;1.60;;
72095;SDS011;59968;51.084;16.748;2022-12-29T09:39:20;2.70;;;1.50;;
72095;SDS011;59968;51.084;16.748;2022-12-29T09:41:52;3.50;;;1.70;;
72095;SDS011;59968;51.084;16.748;2022-12-29T09:47:21;4.40;;;2.00;;
72095;SDS011;59968;51.084;16.748;2022-12-29T09:49:56;4.60;;;1.80;;
72095;SDS011;59968;51.084;16.748;2022-12-29T09:52:44;3.30;;;1.60;;
72095;SDS011;59968;51.084;16.748;2022-12-29T09:55:32;3.20;;;1.70;;
72095;SDS011;59968;51.084;16.748;2022-12-29T10:01:21;4.10;;;1.70;;
72095;SDS011;59968;51.084;16.748;2022-12-29T10:04:00;4.00;;;1.70;;
72095;SDS011;59968;51.084;16.748;2022-12-29T10:15:03;4.10;;;1.70;;
72095;SDS011;59968;51.084;16.748;2022-12-29T10:18:03;3.40;;;1.40;;
72095;SDS011;59968;51.084;16.748;2022-12-29T10:24:25;4.20;;;1.80;;
72095;SDS011;59968;51.084;16.748;2022-12-29T10:26:55;4.10;;;1.90;;
72095;SDS011;59968;51.084;16.748;2022-12-29T10:29:32;5.40;;;1.90;;
72095;SDS011;59968;51.084;16.748;2022-12-29T10:32:06;4.80;;;1.90;;
72095;SDS011;59968;51.084;16.748;2022-12-29T10:34:45;4.90;;;2.10;;
72095;SDS011;59968;51.084;16.748;2022-12-29T10:39:48;4.20;;;2.00;;
72095;SDS011;59968;51.084;16.748;2022-12-29T10:45:11;4.10;;;1.90;;
72095;SDS011;59968;51.084;16.748;2022-12-29T10:47:51;4.60;;;2.00;;
72095;SDS011;59968;51.084;16.748;2022-12-29T10:50:27;3.30;;;1.80;;
72095;SDS011;59968;51.084;16.748;2022-12-29T10:53:00;5.20;;;2.10;;
72095;SDS011;59968;51.084;16.748;2022-12-29T10:55:35;4.90;;;1.80;;
72095;SDS011;59968;51.084;16.748;2022-12-29T10:58:05;4.30;;;2.00;;
72095;SDS011;59968;51.084;16.748;2022-12-29T11:00:35;5.00;;;2.00;;
72095;SDS011;59968;51.084;16.748;2022-12-29T11:08:16;4.70;;;2.00;;
72095;SDS011;59968;51.084;16.748;2022-12-29T11:10:56;4.80;;;2.00;;
72095;SDS011;59968;51.084;16.748;2022-12-29T11:13:28;4.80;;;1.60;;
72095;SDS011;59968;51.084;16.748;2022-12-29T11:16:05;5.70;;;2.20;;
72095;SDS011;59968;51.084;16.748;2022-12-29T11:18:33;4.60;;;2.10;;
72095;SDS011;59968;51.084;16.748;2022-12-29T11:21:06;4.20;;;1.80;;
72095;SDS011;59968;51.084;16.748;2022-12-29T11:23:59;5.90;;;2.20;;
72095;SDS011;59968;51.084;16.748;2022-12-29T11:26:29;6.40;;;2.10;;
72095;SDS011;59968;51.084;16.748;2022-12-29T11:29:08;4.20;;;1.80;;
72095;SDS011;59968;51.084;16.748;2022-12-29T11:31:49;4.50;;;1.80;;
72095;SDS011;59968;51.084;16.748;2022-12-29T11:34:23;4.10;;;2.00;;
72095;SDS011;59968;51.084;16.748;2022-12-29T11:37:11;4.90;;;2.20;;
72095;SDS011;59968;51.084;16.748;2022-12-29T11:42:17;6.20;;;2.20;;
72095;SDS011;59968;51.084;16.748;2022-12-29T11:44:50;3.30;;;1.70;;
72095;SDS011;59968;51.084;16.748;2022-12-29T11:47:22;4.10;;;1.90;;
72095;SDS011;59968;51.084;16.748;2022-12-29T11:49:59;4.40;;;1.90;;
72095;SDS011;59968;51.084;16.748;2022-12-29T11:52:31;4.70;;;1.90;;
72095;SDS011;59968;51.084;16.748;2022-12-29T11:55:04;5.10;;;2.10;;
72095;SDS011;59968;51.084;16.748;2022-12-29T11:57:35;5.00;;;1.90;;
72095;SDS011;59968;51.084;16.748;2022-12-29T12:00:14;3.50;;;1.70;;
72095;SDS011;59968;51.084;16.748;2022-12-29T12:08:09;4.60;;;1.70;;
72095;SDS011;59968;51.084;16.748;2022-12-29T12:10:46;3.20;;;1.80;;
72095;SDS011;59968;51.084;16.748;2022-12-29T12:16:14;6.40;;;1.90;;
72095;SDS011;59968;51.084;16.748;2022-12-29T12:18:51;6.60;;;2.10;;
72095;SDS011;59968;51.084;16.748;2022-12-29T12:27:21;3.70;;;1.70;;
72095;SDS011;59968;51.084;16.748;2022-12-29T12:32:23;6.50;;;1.80;;
72095;SDS011;59968;51.084;16.748;2022-12-29T12:35:15;4.50;;;2.30;;
72095;SDS011;59968;51.084;16.748;2022-12-29T12:44:20;5.80;;;1.60;;
72095;SDS011;59968;51.084;16.748;2022-12-29T12:46:40;6.80;;;2.30;;
72095;SDS011;59968;51.084;16.748;2022-12-29T12:50:12;4.00;;;1.60;;
72095;SDS011;59968;51.084;16.748;2022-12-29T12:57:57;5.90;;;2.00;;
72095;SDS011;59968;51.084;16.748;2022-12-29T13:06:15;5.30;;;1.80;;
72095;SDS011;59968;51.084;16.748;2022-12-29T13:17:30;5.70;;;2.00;;
72095;SDS011;59968;51.084;16.748;2022-12-29T13:23:02;4.90;;;2.10;;
72095;SDS011;59968;51.084;16.748;2022-12-29T13:37:25;3.80;;;2.00;;
72095;SDS011;59968;51.084;16.748;2022-12-29T13:40:21;5.80;;;2.10;;
72095;SDS011;59968;51.084;16.748;2022-12-29T13:42:50;4.40;;;1.90;;
72095;SDS011;59968;51.084;16.748;2022-12-29T13:45:24;6.60;;;2.10;;
72095;SDS011;59968;51.084;16.748;2022-12-29T13:50:45;4.90;;;2.40;;
72095;SDS011;59968;51.084;16.748;2022-12-29T14:04:40;5.20;;;2.10;;
72095;SDS011;59968;51.084;16.748;2022-12-29T14:07:42;3.90;;;2.20;;
72095;SDS011;59968;51.084;16.748;2022-12-29T14:15:58;4.90;;;2.40;;
72095;SDS011;59968;51.084;16.748;2022-12-29T14:18:26;6.50;;;2.70;;
72095;SDS011;59968;51.084;16.748;2022-12-29T14:23:44;7.00;;;3.20;;
72095;SDS011;59968;51.084;16.748;2022-12-29T14:26:15;6.90;;;3.20;;
72095;SDS011;59968;51.084;16.748;2022-12-29T14:28:56;7.40;;;3.30;;
72095;SDS011;59968;51.084;16.748;2022-12-29T14:31:42;8.20;;;3.60;;
72095;SDS011;59968;51.084;16.748;2022-12-29T14:36:39;9.40;;;3.70;;
72095;SDS011;59968;51.084;16.748;2022-12-29T14:44:48;8.10;;;3.00;;
72095;SDS011;59968;51.084;16.748;2022-12-29T14:52:44;23.20;;;4.00;;
72095;SDS011;59968;51.084;16.748;2022-12-29T14:57:48;9.60;;;3.80;;
72095;SDS011;59968;51.084;16.748;2022-12-29T15:00:21;10.20;;;4.30;;
72095;SDS011;59968;51.084;16.748;2022-12-29T15:03:05;12.00;;;5.20;;
72095;SDS011;59968;51.084;16.748;2022-12-29T15:05:36;9.80;;;4.20;;
72095;SDS011;59968;51.084;16.748;2022-12-29T15:08:09;12.30;;;4.90;;
72095;SDS011;59968;51.084;16.748;2022-12-29T15:11:41;11.60;;;4.30;;
72095;SDS011;59968;51.084;16.748;2022-12-29T15:13:59;18.70;;;7.10;;
72095;SDS011;59968;51.084;16.748;2022-12-29T15:16:32;16.00;;;7.60;;
72095;SDS011;59968;51.084;16.748;2022-12-29T15:19:02;10.20;;;4.70;;
72095;SDS011;59968;51.084;16.748;2022-12-29T15:21:32;7.70;;;3.90;;
72095;SDS011;59968;51.084;16.748;2022-12-29T15:24:03;10.30;;;4.60;;
72095;SDS011;59968;51.084;16.748;2022-12-29T15:26:39;7.50;;;3.80;;
72095;SDS011;59968;51.084;16.748;2022-12-29T15:29:28;8.40;;;3.70;;
72095;SDS011;59968;51.084;16.748;2022-12-29T15:32:25;8.90;;;4.50;;
72095;SDS011;59968;51.084;16.748;2022-12-29T15:34:55;9.10;;;4.10;;
72095;SDS011;59968;51.084;16.748;2022-12-29T15:37:33;11.00;;;4.30;;
72095;SDS011;59968;51.084;16.748;2022-12-29T15:40:05;12.00;;;5.90;;
72095;SDS011;59968;51.084;16.748;2022-12-29T15:45:51;12.30;;;5.30;;
72095;SDS011;59968;51.084;16.748;2022-12-29T15:48:22;11.10;;;5.40;;
72095;SDS011;59968;51.084;16.748;2022-12-29T15:50:50;10.30;;;4.60;;
72095;SDS011;59968;51.084;16.748;2022-12-29T15:53:21;8.60;;;3.90;;
72095;SDS011;59968;51.084;16.748;2022-12-29T15:56:01;6.90;;;4.00;;
72095;SDS011;59968;51.084;16.748;2022-12-29T15:58:42;9.80;;;4.60;;
72095;SDS011;59968;51.084;16.748;2022-12-29T16:03:47;7.90;;;3.60;;
72095;SDS011;59968;51.084;16.748;2022-12-29T16:09:13;10.90;;;4.90;;
72095;SDS011;59968;51.084;16.748;2022-12-29T16:11:44;10.90;;;5.40;;
72095;SDS011;59968;51.084;16.748;2022-12-29T16:14:21;9.00;;;4.60;;
72095;SDS011;59968;51.084;16.748;2022-12-29T16:17:12;9.00;;;4.00;;
72095;SDS011;59968;51.084;16.748;2022-12-29T16:20:23;10.10;;;4.60;;
72095;SDS011;59968;51.084;16.748;2022-12-29T16:22:57;10.70;;;5.30;;
72095;SDS011;59968;51.084;16.748;2022-12-29T16:27:58;15.30;;;6.20;;
72095;SDS011;59968;51.084;16.748;2022-12-29T16:30:31;9.70;;;3.90;;
72095;SDS011;59968;51.084;16.748;2022-12-29T16:33:02;10.80;;;4.90;;
72095;SDS011;59968;51.084;16.748;2022-12-29T16:35:46;9.90;;;4.30;;
72095;SDS011;59968;51.084;16.748;2022-12-29T16:38:21;9.80;;;4.30;;
72095;SDS011;59968;51.084;16.748;2022-12-29T16:43:25;10.90;;;4.40;;
72095;SDS011;59968;51.084;16.748;2022-12-29T16:51:03;10.80;;;5.10;;
72095;SDS011;59968;51.084;16.748;2022-12-29T16:53:49;8.60;;;3.90;;
72095;SDS011;59968;51.084;16.748;2022-12-29T16:56:22;7.80;;;3.70;;
72095;SDS011;59968;51.084;16.748;2022-12-29T16:59:00;10.10;;;4.20;;
72095;SDS011;59968;51.084;16.748;2022-12-29T17:01:49;9.50;;;3.60;;
72095;SDS011;59968;51.084;16.748;2022-12-29T17:04:18;9.40;;;4.20;;
72095;SDS011;59968;51.084;16.748;2022-12-29T17:06:47;8.70;;;4.00;;
72095;SDS011;59968;51.084;16.748;2022-12-29T17:09:19;10.30;;;4.30;;
72095;SDS011;59968;51.084;16.748;2022-12-29T17:11:50;12.30;;;5.00;;
72095;SDS011;59968;51.084;16.748;2022-12-29T17:17:21;9.00;;;4.80;;
72095;SDS011;59968;51.084;16.748;2022-12-29T17:20:21;9.00;;;4.40;;
72095;SDS011;59968;51.084;16.748;2022-12-29T17:22:56;11.20;;;4.00;;
72095;SDS011;59968;51.084;16.748;2022-12-29T17:25:26;11.20;;;4.60;;
72095;SDS011;59968;51.084;16.748;2022-12-29T17:27:58;12.40;;;5.20;;
72095;SDS011;59968;51.084;16.748;2022-12-29T17:30:32;10.50;;;4.80;;
72095;SDS011;59968;51.084;16.748;2022-12-29T17:33:06;14.00;;;5.60;;
72095;SDS011;59968;51.084;16.748;2022-12-29T17:35:40;9.30;;;4.40;;
72095;SDS011;59968;51.084;16.748;2022-12-29T17:38:18;12.70;;;4.80;;
72095;SDS011;59968;51.084;16.748;2022-12-29T17:40:55;9.50;;;4.50;;
72095;SDS011;59968;51.084;16.748;2022-12-29T17:43:24;9.70;;;3.70;;
72095;SDS011;59968;51.084;16.748;2022-12-29T17:46:04;8.90;;;3.80;;
72095;SDS011;59968;51.084;16.748;2022-12-29T17:48:34;8.50;;;4.10;;
72095;SDS011;59968;51.084;16.748;2022-12-29T17:51:02;8.80;;;4.10;;
72095;SDS011;59968;51.084;16.748;2022-12-29T17:53:30;8.80;;;3.80;;
72095;SDS011;59968;51.084;16.748;2022-12-29T17:55:59;10.80;;;4.40;;
72095;SDS011;59968;51.084;16.748;2022-12-29T17:58:27;10.10;;;4.80;;
72095;SDS011;59968;51.084;16.748;2022-12-29T18:00:58;8.70;;;4.30;;
72095;SDS011;59968;51.084;16.748;2022-12-29T18:03:29;8.70;;;4.10;;
72095;SDS011;59968;51.084;16.748;2022-12-29T18:06:02;9.80;;;4.00;;
72095;SDS011;59968;51.084;16.748;2022-12-29T18:08:33;10.10;;;5.20;;
72095;SDS011;59968;51.084;16.748;2022-12-29T18:11:02;9.50;;;4.10;;
72095;SDS011;59968;51.084;16.748;2022-12-29T18:13:30;9.00;;;4.60;;